Aeroporto :
LOGIN :

Iscrizione | Disclaimer

   EN    FR    IT 

 










Sommario :    VFR   VFR Marginale   IFR   IFR Intensivo   IFR Molto Intensivo
Visibilità : 
Base nubi : 
>= 8 km
>= 3000ft
5 / 8 km
1000 / 3000 ft
1500m / 5 km
500 / 1000 ft
800 / 1500m
200 / 500 ft
< 800m
< 200 ft
Simboli :   Temporali  Nebbia  Neve Forte  Precipitazioni Forti  Vento > 20 kt
SIGMETs :   Varie  Temporali  Ghiacco  Turbolenza  Onda orograficha  Ceneri Vulcaniche






- Altitudine del aeroporto : 2945 ft
- Codice IATA : RGS


LEBG - Burgos

ULTIMO METAR :
  • 200430Z AUTO 17008KT 9999 OVC030 02/00 Q1009

METARs OBSOLETI :
  • 200400Z AUTO 16009KT 9999 SCT029 BKN035 02/00 Q1010
  • 200330Z AUTO 16009KT 9999 SCT033 02/00 Q1010
  • 200300Z AUTO 17009KT 9999 SCT037 02/00 Q1010
  • 200230Z AUTO 16008KT 9999 SCT040 02/00 Q1011
  • 200200Z AUTO 16008KT 9999 FEW060 01/00 Q1011

TAF TAF LEBG
Valido dal 20 a 03 ore il 20 a 12 ore UTC


200200Z 2003/2012 18007KT 9999 SCT025 SCT050



MetMap, La meteo Aeronautica in un colpo d'occhio ! - Copyright ORBIFLY Dicembre 2007 - Disclaimer

ORBIFLY MET'MAP TEAM :

Programmazione e sviluppo : Alexandra Zaïnal
Concezione e sviluppo : Baudouin d'Aumeries
Co-Programmazione e sviluppo : Marc-Olivier Méhu
Supporto tecnico e logistico : Manuel Goepfert
Aiuto per la traduzione : Arnaldo La Scala

Contatto : metmap@orbifly.com




FONTI E CREDITI :

   NOAA